Time;durP1;ratioP1;P1;durP2;ratioP2;P2;SDS_P1;SDS_P2;PMS_P1;PMS_P2;Temp;Humidity;BMP_temperature;BMP_pressure;BME280_temperature;BME280_humidity;BME280_pressure;Samples;Min_cycle;Max_cycle;Signal;HPM_P1;HPM_P2
2022/02/16 00:01:39;;;;;;;7.50;6.82;;;8.70;99.90;;;;;;5139177;27;20400;-74
2022/02/16 00:04:05;;;;;;;7.35;6.63;;;8.80;99.90;;;;;;5138223;27;20054;-74
2022/02/16 00:06:31;;;;;;;7.45;6.85;;;8.80;99.90;;;;;;5138364;27;20039;-74
2022/02/16 00:08:57;;;;;;;9.80;6.97;;;8.80;99.90;;;;;;5138531;27;20027;-74
2022/02/16 00:11:22;;;;;;;7.78;6.97;;;8.80;99.90;;;;;;5138346;27;20485;-75
2022/02/16 00:13:54;;;;;;;6.47;5.97;;;8.80;99.90;;;;;;5138342;27;20027;-75
2022/02/16 00:16:19;;;;;;;7.13;6.53;;;8.80;99.90;;;;;;5138527;27;20110;-75
2022/02/16 00:18:45;;;;;;;6.88;6.25;;;8.80;99.90;;;;;;5138132;27;20110;-75
2022/02/16 00:21:10;;;;;;;7.20;6.60;;;8.80;99.90;;;;;;5139034;27;20039;-74
2022/02/16 00:23:36;;;;;;;6.38;5.88;;;8.80;99.90;;;;;;5138498;27;20015;-75
2022/02/16 00:26:02;;;;;;;6.25;5.55;;;8.80;99.90;;;;;;5137840;27;20068;-75
2022/02/16 00:28:28;;;;;;;5.75;5.25;;;8.80;99.90;;;;;;5138328;27;20066;-74
2022/02/16 00:30:54;;;;;;;5.53;4.35;;;8.80;99.90;;;;;;5138128;27;20035;-74
2022/02/16 00:33:20;;;;;;;4.28;3.90;;;8.90;99.90;;;;;;5137374;27;20031;-74
2022/02/16 00:35:45;;;;;;;5.30;4.93;;;8.90;99.90;;;;;;5138063;27;20019;-75
2022/02/16 00:38:11;;;;;;;5.25;4.53;;;8.90;99.90;;;;;;5137514;27;20037;-74
2022/02/16 00:40:43;;;;;;;5.43;4.93;;;8.90;99.90;;;;;;5136839;27;20027;-74
2022/02/16 00:43:09;;;;;;;5.72;5.18;;;8.80;99.90;;;;;;5137467;27;20042;-75
2022/02/16 00:45:34;;;;;;;5.93;5.43;;;8.80;99.90;;;;;;5137555;27;20023;-75
2022/02/16 00:48:00;;;;;;;7.53;5.07;;;8.80;99.90;;;;;;5136656;27;20027;-74
2022/02/16 00:50:26;;;;;;;5.10;4.70;;;8.80;99.90;;;;;;5137206;27;20023;-74
2022/02/16 00:52:52;;;;;;;3.70;3.30;;;8.80;99.90;;;;;;5136080;27;20019;-74
2022/02/16 00:55:18;;;;;;;3.65;3.35;;;8.80;99.90;;;;;;5136459;27;20423;-75
2022/02/16 00:57:44;;;;;;;4.38;3.20;;;8.80;99.90;;;;;;5137262;27;20035;-74
2022/02/16 01:00:10;;;;;;;3.38;3.08;;;8.80;99.90;;;;;;5137081;27;20057;-75
2022/02/16 01:02:35;;;;;;;3.30;3.00;;;8.80;99.90;;;;;;5136885;27;20038;-76
2022/02/16 01:05:01;;;;;;;3.53;3.22;;;8.80;99.90;;;;;;5137097;27;20115;-75
2022/02/16 01:07:27;;;;;;;4.32;3.50;;;8.80;99.90;;;;;;5136339;27;20055;-75
2022/02/16 01:09:52;;;;;;;5.43;3.83;;;8.80;99.90;;;;;;5137124;27;20024;-74
2022/02/16 01:12:18;;;;;;;4.68;4.28;;;8.80;99.90;;;;;;5136910;27;20102;-74
2022/02/16 01:14:46;;;;;;;5.07;4.57;;;8.80;99.90;;;;;;5136272;27;20530;-74
2022/02/16 01:17:12;;;;;;;6.10;5.60;;;8.80;99.90;;;;;;5136492;27;20024;-74
2022/02/16 01:19:38;;;;;;;7.55;6.75;;;8.80;99.90;;;;;;5136836;27;20027;-73
2022/02/16 01:22:04;;;;;;;6.95;6.25;;;8.80;99.90;;;;;;5136389;27;20031;-75
2022/02/16 01:24:29;;;;;;;7.72;6.68;;;8.80;99.90;;;;;;5137419;27;20606;-75
2022/02/16 01:26:55;;;;;;;7.60;6.90;;;8.80;99.90;;;;;;5137581;27;20027;-74
2022/02/16 01:29:23;;;;;;;8.15;6.38;;;8.80;99.90;;;;;;5136607;27;20072;-75
2022/02/16 01:31:50;;;;;;;7.53;6.50;;;8.80;99.90;;;;;;5136939;27;20023;-74
2022/02/16 01:34:15;;;;;;;9.70;6.82;;;8.80;99.90;;;;;;5136311;27;20023;-74
2022/02/16 01:36:41;;;;;;;13.95;7.43;;;8.80;99.90;;;;;;5135419;27;20031;-75
2022/02/16 01:39:07;;;;;;;8.43;7.05;;;8.80;99.90;;;;;;5136459;27;20038;-75
2022/02/16 01:41:33;;;;;;;8.00;6.75;;;8.80;99.90;;;;;;5136545;27;20027;-75
2022/02/16 01:43:59;;;;;;;8.82;6.65;;;8.80;99.90;;;;;;5136547;27;20072;-75
2022/02/16 01:46:25;;;;;;;12.23;7.10;;;8.90;99.90;;;;;;5136925;27;20048;-75
2022/02/16 01:48:50;;;;;;;6.93;6.30;;;8.80;99.90;;;;;;5136453;27;20037;-75
2022/02/16 01:51:16;;;;;;;11.43;7.00;;;8.80;99.90;;;;;;5135598;27;20027;-75
2022/02/16 01:53:41;;;;;;;9.75;7.72;;;8.90;99.90;;;;;;5135875;27;20114;-74
2022/02/16 01:56:07;;;;;;;12.38;7.15;;;8.90;99.90;;;;;;5138076;27;20016;-74
2022/02/16 01:58:34;;;;;;;10.38;7.82;;;9.00;99.90;;;;;;5135469;27;20059;-74
2022/02/16 02:01:01;;;;;;;11.65;8.00;;;9.00;99.90;;;;;;5135961;27;20023;-74
2022/02/16 02:03:27;;;;;;;9.25;7.82;;;9.00;99.90;;;;;;5135393;27;20027;-74
2022/02/16 02:05:53;;;;;;;10.25;8.13;;;9.00;99.90;;;;;;5135697;27;20047;-74
2022/02/16 02:08:23;;;;;;;14.07;8.18;;;9.00;99.90;;;;;;5136750;27;20382;-75
2022/02/16 02:10:50;;;;;;;16.90;8.98;;;9.10;99.90;;;;;;5136417;27;20156;-74
2022/02/16 02:13:17;;;;;;;18.73;10.82;;;9.10;99.90;;;;;;5137385;27;20114;-74
2022/02/16 02:15:43;;;;;;;17.02;11.15;;;9.10;99.90;;;;;;5137252;27;20409;-74
2022/02/16 02:18:13;;;;;;;14.73;10.02;;;9.10;99.90;;;;;;5135896;27;20031;-75
2022/02/16 02:20:40;;;;;;;17.88;11.60;;;9.10;99.90;;;;;;5136379;27;20042;-74
2022/02/16 02:23:06;;;;;;;14.98;10.77;;;9.10;99.90;;;;;;5135801;27;20044;-74
2022/02/16 02:25:43;;;;;;;15.35;11.10;;;9.20;99.90;;;;;;5134735;27;20030;-74
2022/02/16 02:28:09;;;;;;;15.70;10.23;;;9.20;99.90;;;;;;5135653;27;20042;-75
2022/02/16 02:30:34;;;;;;;16.30;10.05;;;9.20;99.90;;;;;;5135209;27;20423;-74
2022/02/16 02:33:00;;;;;;;16.08;10.02;;;9.20;99.90;;;;;;5135094;27;20019;-74
2022/02/16 02:35:26;;;;;;;12.52;10.20;;;9.10;99.90;;;;;;5135576;27;20378;-74
2022/02/16 02:37:54;;;;;;;12.02;9.85;;;9.20;99.90;;;;;;5135518;27;20054;-74
2022/02/16 02:40:20;;;;;;;15.90;10.95;;;9.20;99.90;;;;;;5134755;27;20023;-75
2022/02/16 02:42:45;;;;;;;14.05;10.05;;;9.20;99.90;;;;;;5135707;27;20878;-75
2022/02/16 02:45:11;;;;;;;12.00;10.27;;;9.20;99.90;;;;;;5135873;27;20023;-75
2022/02/16 02:47:37;;;;;;;11.38;9.48;;;9.30;99.90;;;;;;5135149;27;20053;-75
2022/02/16 02:50:04;;;;;;;10.02;9.13;;;9.30;99.90;;;;;;5135722;27;20071;-74
2022/02/16 02:52:31;;;;;;;10.85;9.73;;;9.20;99.90;;;;;;5135814;27;20046;-74
2022/02/16 02:54:57;;;;;;;10.57;9.50;;;9.30;99.90;;;;;;5134612;27;20394;-75
2022/02/16 02:57:22;;;;;;;10.32;9.20;;;9.30;99.90;;;;;;5134929;27;20022;-74
2022/02/16 02:59:48;;;;;;;9.18;7.93;;;9.30;99.90;;;;;;5134902;27;20398;-75
2022/02/16 03:02:16;;;;;;;9.60;8.68;;;9.30;99.90;;;;;;5134352;27;20069;-73
2022/02/16 03:04:42;;;;;;;9.90;8.35;;;9.30;99.90;;;;;;5135325;27;20035;-74
2022/02/16 03:07:07;;;;;;;8.73;7.93;;;9.30;99.90;;;;;;5134502;27;20046;-74
2022/02/16 03:09:33;;;;;;;8.02;6.63;;;9.30;99.90;;;;;;5135194;27;20042;-74
2022/02/16 03:11:58;;;;;;;7.70;7.00;;;9.30;99.90;;;;;;5135341;27;20034;-75
2022/02/16 03:14:24;;;;;;;7.57;6.88;;;9.30;99.90;;;;;;5134472;27;20020;-75
2022/02/16 03:16:49;;;;;;;6.95;6.35;;;9.30;99.90;;;;;;5134673;27;20019;-75
2022/02/16 03:19:15;;;;;;;7.07;6.47;;;9.30;99.90;;;;;;5135178;27;20027;-74
2022/02/16 03:21:40;;;;;;;6.85;6.18;;;9.30;99.90;;;;;;5134650;27;20067;-74
2022/02/16 03:24:07;;;;;;;6.53;5.93;;;9.30;99.90;;;;;;5135241;27;20061;-75
2022/02/16 03:26:33;;;;;;;7.22;6.35;;;9.30;99.90;;;;;;5134514;27;20421;-75
2022/02/16 03:29:05;;;;;;;6.53;5.93;;;9.30;99.90;;;;;;5133964;27;20433;-75
2022/02/16 03:31:30;;;;;;;6.80;6.10;;;9.30;99.90;;;;;;5135332;27;20088;-75
2022/02/16 03:33:56;;;;;;;6.63;5.80;;;9.40;99.90;;;;;;5134359;28;20020;-75
2022/02/16 03:36:21;;;;;;;6.30;5.80;;;9.30;99.90;;;;;;5133545;27;20352;-75
2022/02/16 03:38:47;;;;;;;7.07;5.95;;;9.40;99.90;;;;;;5134763;27;20427;-75
2022/02/16 03:41:12;;;;;;;5.57;5.15;;;9.40;99.90;;;;;;5135532;27;20026;-75
2022/02/16 03:43:38;;;;;;;6.97;5.15;;;9.30;99.90;;;;;;5134321;27;20032;-75
2022/02/16 03:46:04;;;;;;;4.82;4.43;;;9.30;99.90;;;;;;5135236;28;20015;-75
2022/02/16 03:48:29;;;;;;;5.68;5.10;;;9.40;99.90;;;;;;5135098;28;20502;-75
2022/02/16 03:50:55;;;;;;;4.13;3.78;;;9.30;99.90;;;;;;5134062;27;20037;-75
2022/02/16 03:53:20;;;;;;;4.43;3.55;;;9.30;99.90;;;;;;5134851;28;20023;-75
2022/02/16 03:55:46;;;;;;;3.65;3.35;;;9.30;99.90;;;;;;5134783;28;20023;-74
2022/02/16 03:58:11;;;;;;;6.10;3.78;;;9.30;99.90;;;;;;5133868;28;20041;-77
2022/02/16 04:00:37;;;;;;;4.32;4.03;;;9.40;99.90;;;;;;5134535;28;20016;-74
2022/02/16 04:03:09;;;;;;;4.82;4.43;;;9.30;99.90;;;;;;5134586;28;20027;-76
2022/02/16 04:05:36;;;;;;;8.77;4.88;;;9.40;99.90;;;;;;5133545;27;20043;-74
2022/02/16 04:08:02;;;;;;;6.45;4.80;;;9.40;99.90;;;;;;5134746;28;20031;-74
2022/02/16 04:10:28;;;;;;;5.22;4.82;;;9.40;99.90;;;;;;5133738;28;20053;-74
2022/02/16 04:12:53;;;;;;;6.20;5.50;;;9.30;99.90;;;;;;5134300;28;20031;-74
2022/02/16 04:15:20;;;;;;;6.03;5.50;;;9.40;99.90;;;;;;5134596;27;20069;-75
2022/02/16 04:17:45;;;;;;;5.65;5.15;;;9.40;99.90;;;;;;5133343;27;20466;-75
2022/02/16 04:20:11;;;;;;;5.18;4.68;;;9.40;99.90;;;;;;5134232;28;20489;-75
2022/02/16 04:22:45;;;;;;;6.45;4.50;;;9.40;99.90;;;;;;5134201;28;20427;-75
2022/02/16 04:25:11;;;;;;;5.43;4.47;;;9.40;99.90;;;;;;5133108;28;20046;-74
2022/02/16 04:27:37;;;;;;;5.85;5.38;;;9.40;99.90;;;;;;5137686;27;20023;-76
2022/02/16 04:30:07;;;;;;;6.13;5.55;;;9.40;99.90;;;;;;5138755;27;20432;-75
2022/02/16 04:32:33;;;;;;;6.95;6.18;;;9.40;99.90;;;;;;5137681;27;20457;-75
2022/02/16 04:34:59;;;;;;;6.80;6.20;;;9.40;99.90;;;;;;5138749;27;20046;-75
2022/02/16 04:37:25;;;;;;;7.75;7.05;;;9.30;99.90;;;;;;5138250;27;20055;-74
2022/02/16 04:39:51;;;;;;;10.38;7.70;;;9.50;99.90;;;;;;5136923;27;20050;-75
2022/02/16 04:42:16;;;;;;;8.70;7.97;;;9.50;99.90;;;;;;5138186;27;20407;-74
2022/02/16 04:44:42;;;;;;;8.32;7.53;;;9.50;99.90;;;;;;5137287;27;20015;-74
2022/02/16 04:47:08;;;;;;;8.60;7.78;;;9.50;99.90;;;;;;5136848;27;20118;-74
2022/02/16 04:49:33;;;;;;;8.80;8.00;;;9.50;99.90;;;;;;5137569;27;20035;-75
2022/02/16 04:51:59;;;;;;;8.00;7.25;;;9.50;99.90;;;;;;5137066;27;20037;-74
2022/02/16 04:54:25;;;;;;;7.10;6.60;;;9.50;99.90;;;;;;5137330;27;20031;-74
2022/02/16 04:56:50;;;;;;;7.82;7.13;;;9.50;99.90;;;;;;5137792;27;20366;-75
2022/02/16 04:59:16;;;;;;;6.90;6.30;;;9.50;99.90;;;;;;5137718;27;20203;-73
2022/02/16 05:01:42;;;;;;;7.28;6.68;;;9.50;99.90;;;;;;5137077;27;20470;-74
2022/02/16 05:04:08;;;;;;;7.63;6.95;;;9.50;99.90;;;;;;5138159;27;20023;-74
2022/02/16 05:06:38;;;;;;;7.38;6.82;;;9.50;99.90;;;;;;5136894;27;20147;-74
2022/02/16 05:09:07;;;;;;;6.80;6.20;;;9.50;99.90;;;;;;5137603;27;20482;-74
2022/02/16 05:11:33;;;;;;;6.70;6.20;;;9.50;99.90;;;;;;5137666;27;20466;-74
2022/02/16 05:14:01;;;;;;;11.95;6.30;;;9.50;99.90;;;;;;5136587;27;20119;-74
2022/02/16 05:16:27;;;;;;;6.97;6.28;;;9.50;99.90;;;;;;5136903;27;20031;-75
2022/02/16 05:18:55;;;;;;;6.72;6.22;;;9.50;99.90;;;;;;5137148;27;20056;-75
2022/02/16 05:21:21;;;;;;;7.00;6.50;;;9.50;99.90;;;;;;5136742;27;20027;-74
2022/02/16 05:23:47;;;;;;;6.32;5.72;;;9.50;99.90;;;;;;5137017;27;20038;-74
2022/02/16 05:26:12;;;;;;;5.53;5.07;;;9.50;99.90;;;;;;5137607;27;20019;-75
2022/02/16 05:28:38;;;;;;;5.70;5.30;;;9.50;99.90;;;;;;5136518;27;20031;-75
2022/02/16 05:31:04;;;;;;;5.40;5.00;;;9.50;99.90;;;;;;5137319;27;20019;-75
2022/02/16 05:33:31;;;;;;;5.60;5.20;;;9.50;99.90;;;;;;5137601;27;20169;-75
2022/02/16 05:35:57;;;;;;;6.00;5.25;;;9.60;99.90;;;;;;5135824;27;20024;-75
2022/02/16 05:38:23;;;;;;;5.60;5.20;;;9.60;99.90;;;;;;5135242;27;20031;-74
2022/02/16 05:40:48;;;;;;;6.50;5.90;;;9.60;99.90;;;;;;5136951;27;20042;-75
2022/02/16 05:43:14;;;;;;;5.65;5.25;;;9.60;99.90;;;;;;5135945;27;20027;-75
2022/02/16 05:45:41;;;;;;;5.95;5.35;;;9.70;99.90;;;;;;5136813;27;20110;-75
2022/02/16 05:48:06;;;;;;;6.13;5.63;;;9.70;99.90;;;;;;5136386;27;20081;-74
2022/02/16 05:50:32;;;;;;;5.95;5.45;;;9.70;99.90;;;;;;5135755;27;20470;-74
2022/02/16 05:53:01;;;;;;;6.40;5.80;;;9.70;99.90;;;;;;5118780;27;20023;-74
2022/02/16 05:55:26;;;;;;;5.80;5.22;;;9.80;99.90;;;;;;5136701;27;20038;-74
2022/02/16 05:57:52;;;;;;;6.90;5.57;;;9.80;99.90;;;;;;5136045;27;20035;-73
2022/02/16 06:00:19;;;;;;;6.13;5.53;;;9.80;99.90;;;;;;5136511;27;20019;-75
2022/02/16 06:02:45;;;;;;;6.50;5.90;;;10.40;99.90;;;;;;5136409;27;20024;-74
2022/02/16 06:05:10;;;;;;;5.45;4.95;;;9.90;99.90;;;;;;5135807;27;20027;-74
2022/02/16 06:07:36;;;;;;;5.88;5.35;;;9.90;99.90;;;;;;5135964;27;20164;-74
2022/02/16 06:10:02;;;;;;;6.20;5.70;;;9.90;99.90;;;;;;5135283;27;20046;-75
2022/02/16 06:12:28;;;;;;;8.02;4.03;;;9.90;99.90;;;;;;5136090;27;20471;-75
2022/02/16 06:14:53;;;;;;;4.88;4.40;;;10.00;99.90;;;;;;5136338;27;20023;-73
2022/02/16 06:17:19;;;;;;;5.63;5.13;;;9.90;99.90;;;;;;5134917;27;20102;-74
2022/02/16 06:19:45;;;;;;;5.55;4.45;;;10.00;99.90;;;;;;5135226;27;20073;-74
2022/02/16 06:22:10;;;;;;;4.57;4.18;;;9.90;99.90;;;;;;5135995;27;20103;-74
2022/02/16 06:24:36;;;;;;;6.38;3.55;;;9.90;99.90;;;;;;5134944;27;20081;-75
2022/02/16 06:27:03;;;;;;;3.90;3.60;;;9.90;99.90;;;;;;5135204;27;20023;-75
2022/02/16 06:29:28;;;;;;;3.45;2.92;;;10.00;99.90;;;;;;5135456;27;20038;-76
2022/02/16 06:31:54;;;;;;;2.80;2.60;;;10.00;99.90;;;;;;5134644;27;20023;-73
2022/02/16 06:34:19;;;;;;;3.13;2.92;;;10.00;99.90;;;;;;5135225;27;20052;-74
2022/02/16 06:36:45;;;;;;;2.72;2.35;;;10.00;99.90;;;;;;5135590;27;20403;-74
2022/02/16 06:39:11;;;;;;;2.60;2.40;;;10.00;99.90;;;;;;5134634;27;20074;-75
2022/02/16 06:41:36;;;;;;;2.78;2.58;;;10.00;99.90;;;;;;5135570;27;20497;-75
2022/02/16 06:44:02;;;;;;;3.33;3.03;;;10.10;99.90;;;;;;5135624;27;20375;-76
2022/02/16 06:46:27;;;;;;;3.42;3.03;;;10.00;99.90;;;;;;5135274;27;20023;-75
2022/02/16 06:48:53;;;;;;;3.50;3.00;;;10.00;99.90;;;;;;5135523;27;20054;-75
2022/02/16 06:51:19;;;;;;;2.83;2.63;;;10.00;99.90;;;;;;5135610;27;20019;-74
2022/02/16 06:53:45;;;;;;;4.07;3.20;;;10.10;99.90;;;;;;5134796;27;20019;-74
2022/02/16 06:56:11;;;;;;;4.70;3.83;;;10.10;99.90;;;;;;5135352;27;20094;-74
2022/02/16 06:58:37;;;;;;;3.88;3.58;;;10.10;99.90;;;;;;5135235;27;20039;-74
2022/02/16 07:01:03;;;;;;;14.13;3.63;;;10.10;99.90;;;;;;5134216;27;20026;-76
2022/02/16 07:03:28;;;;;;;3.85;3.55;;;10.10;99.90;;;;;;5134614;27;20023;-74
2022/02/16 07:05:54;;;;;;;3.72;3.42;;;10.10;99.90;;;;;;5134496;27;20051;-75
2022/02/16 07:08:19;;;;;;;3.67;3.38;;;10.10;99.90;;;;;;5134397;27;20396;-75
2022/02/16 07:10:46;;;;;;;3.33;3.03;;;10.20;99.90;;;;;;5134678;27;20479;-74
2022/02/16 07:13:12;;;;;;;4.43;3.10;;;10.20;99.90;;;;;;5134045;27;20509;-74
2022/02/16 07:15:37;;;;;;;3.38;3.00;;;10.20;99.90;;;;;;5134504;27;20024;-74
2022/02/16 07:18:03;;;;;;;5.03;3.30;;;10.20;99.90;;;;;;5134685;27;20031;-75
2022/02/16 07:20:29;;;;;;;2.92;2.72;;;10.20;99.90;;;;;;5133590;27;20030;-73
2022/02/16 07:22:55;;;;;;;3.58;3.33;;;10.20;99.90;;;;;;5134351;27;20047;-74
2022/02/16 07:25:20;;;;;;;3.75;3.45;;;10.20;99.90;;;;;;5134409;27;20505;-75
2022/02/16 07:27:46;;;;;;;3.80;2.97;;;10.20;99.90;;;;;;5133385;27;20027;-75
2022/02/16 07:30:13;;;;;;;3.08;2.88;;;10.20;99.90;;;;;;5134514;27;20027;-75
2022/02/16 07:32:42;;;;;;;5.35;2.90;;;10.20;99.90;;;;;;5136024;28;20075;-74
2022/02/16 07:35:09;;;;;;;3.15;2.85;;;10.20;99.90;;;;;;5134171;27;20034;-74
2022/02/16 07:37:35;;;;;;;3.97;3.03;;;10.20;99.90;;;;;;5133941;28;20072;-73
2022/02/16 07:40:01;;;;;;;3.88;2.70;;;10.30;99.90;;;;;;5134177;28;20027;-75
2022/02/16 07:42:27;;;;;;;3.35;2.97;;;10.30;99.90;;;;;;5133829;27;20543;-75
2022/02/16 07:44:53;;;;;;;3.05;2.75;;;10.30;99.90;;;;;;5134736;28;20031;-75
2022/02/16 07:47:19;;;;;;;3.25;2.50;;;10.30;99.90;;;;;;5134507;27;20019;-74
2022/02/16 07:49:45;;;;;;;4.18;3.83;;;10.30;99.90;;;;;;5133395;27;20068;-74
2022/02/16 07:52:10;;;;;;;3.80;3.50;;;10.30;99.90;;;;;;5134717;28;20054;-75
2022/02/16 07:54:36;;;;;;;5.07;4.35;;;10.30;99.90;;;;;;5133923;27;20044;-75
2022/02/16 07:57:02;;;;;;;3.97;3.38;;;10.30;99.90;;;;;;5133729;27;20470;-76
2022/02/16 07:59:28;;;;;;;4.60;4.20;;;10.40;99.90;;;;;;5134902;27;20035;-75
2022/02/16 08:01:57;;;;;;;4.55;4.15;;;10.30;99.90;;;;;;5136698;27;20032;-74
2022/02/16 08:04:26;;;;;;;4.90;4.40;;;10.40;99.90;;;;;;5138606;27;20046;-76
2022/02/16 08:06:53;;;;;;;7.75;5.57;;;10.40;99.90;;;;;;5139013;27;20394;-74
2022/02/16 08:09:19;;;;;;;6.38;5.45;;;10.40;99.90;;;;;;5139021;27;20034;-75
2022/02/16 08:11:46;;;;;;;8.30;5.43;;;10.50;99.90;;;;;;5137803;27;20015;-76
2022/02/16 08:14:12;;;;;;;10.68;5.40;;;10.50;99.90;;;;;;5138456;27;20080;-75
2022/02/16 08:16:44;;;;;;;14.27;5.57;;;10.50;99.90;;;;;;5138044;27;20098;-74
2022/02/16 08:19:11;;;;;;;8.15;4.53;;;10.60;99.90;;;;;;5138039;27;20494;-75
2022/02/16 08:21:38;;;;;;;11.65;6.97;;;10.70;99.90;;;;;;5138506;27;20078;-75
2022/02/16 08:24:05;;;;;;;17.50;4.38;;;10.70;99.90;;;;;;5137474;27;20058;-74
2022/02/16 08:26:30;;;;;;;10.23;4.57;;;10.70;99.90;;;;;;5137998;27;20023;-75
2022/02/16 08:28:56;;;;;;;12.88;4.68;;;10.80;99.90;;;;;;5138047;27;20025;-74
2022/02/16 08:31:22;;;;;;;24.67;5.90;;;10.80;99.90;;;;;;5137959;27;20023;-75
2022/02/16 08:33:48;;;;;;;14.00;4.60;;;10.80;99.90;;;;;;5137969;27;20023;-74
2022/02/16 08:36:13;;;;;;;14.27;4.72;;;10.90;99.90;;;;;;5138188;27;20023;-75
2022/02/16 08:38:43;;;;;;;20.13;4.00;;;10.90;99.90;;;;;;5137559;27;20133;-74
2022/02/16 08:41:13;;;;;;;20.85;3.70;;;11.00;99.90;;;;;;5138091;27;20023;-75
2022/02/16 08:43:39;;;;;;;14.77;3.58;;;11.00;99.90;;;;;;5137964;27;20064;-75
2022/02/16 08:46:04;;;;;;;24.98;3.80;;;11.00;99.90;;;;;;5136813;27;20019;-75
2022/02/16 08:48:33;;;;;;;19.38;5.47;;;11.10;99.90;;;;;;5138650;27;20413;-75
2022/02/16 08:50:58;;;;;;;27.73;5.38;;;11.10;99.90;;;;;;5138870;27;20043;-75
2022/02/16 08:53:26;;;;;;;16.42;3.30;;;11.20;99.90;;;;;;5137393;27;20391;-75
2022/02/16 08:55:52;;;;;;;17.73;3.72;;;11.20;99.90;;;;;;5138283;27;20023;-75
2022/02/16 08:58:19;;;;;;;23.60;4.25;;;11.20;99.90;;;;;;5137965;27;20046;-75
2022/02/16 09:00:44;;;;;;;16.75;3.00;;;11.30;99.90;;;;;;5137174;27;20033;-75
2022/02/16 09:03:10;;;;;;;16.45;4.07;;;11.40;99.90;;;;;;5138616;27;20524;-74
2022/02/16 09:05:35;;;;;;;28.27;4.63;;;11.40;99.90;;;;;;5137654;27;20505;-75
2022/02/16 09:08:04;;;;;;;21.80;3.10;;;11.40;99.90;;;;;;5137491;27;20043;-75
2022/02/16 09:10:29;;;;;;;14.23;3.25;;;11.50;99.90;;;;;;5137622;27;20023;-75
2022/02/16 09:12:55;;;;;;;17.98;3.20;;;11.50;99.90;;;;;;5134951;27;20019;-75
2022/02/16 09:15:25;;;;;;;19.45;3.95;;;11.60;99.90;;;;;;5136774;27;20387;-75
2022/02/16 09:17:54;;;;;;;31.85;5.28;;;11.60;99.90;;;;;;5136841;27;20454;-76
2022/02/16 09:20:20;;;;;;;9.75;2.33;;;11.70;99.90;;;;;;5136293;27;20076;-75
2022/02/16 09:22:46;;;;;;;17.15;4.22;;;11.70;99.90;;;;;;5137405;27;20027;-74
2022/02/16 09:25:11;;;;;;;24.48;5.68;;;11.80;99.90;;;;;;5137082;27;20027;-75
2022/02/16 09:27:37;;;;;;;19.70;4.65;;;11.80;99.90;;;;;;5135937;27;20023;-76
2022/02/16 09:30:04;;;;;;;14.90;2.92;;;11.80;99.90;;;;;;5137045;27;20022;-75
2022/02/16 09:32:30;;;;;;;22.30;5.03;;;11.80;99.90;;;;;;5137865;27;20072;-75
2022/02/16 09:34:55;;;;;;;16.17;3.78;;;11.90;99.90;;;;;;5136746;27;20027;-75
2022/02/16 09:37:21;;;;;;;13.05;2.97;;;12.00;99.90;;;;;;5137624;27;20027;-75
2022/02/16 09:39:47;;;;;;;15.68;3.42;;;12.00;99.90;;;;;;5136169;27;20061;-75
2022/02/16 09:42:13;;;;;;;20.42;2.72;;;12.00;99.90;;;;;;5135541;27;20451;-76
2022/02/16 09:45:00;;;;;;;21.35;2.92;;;12.10;99.90;;;;;;5138063;27;20035;-75
2022/02/16 09:47:27;;;;;;;20.65;3.67;;;12.20;99.90;;;;;;5138268;27;20102;-75
2022/02/16 09:49:52;;;;;;;15.85;2.67;;;12.20;99.90;;;;;;5136454;27;20042;-75
2022/02/16 09:52:20;;;;;;;20.10;3.08;;;12.30;99.90;;;;;;5136569;27;20027;-77
2022/02/16 09:54:46;;;;;;;16.85;3.10;;;12.30;99.90;;;;;;5137681;27;20026;-75
2022/02/16 09:57:11;;;;;;;21.02;2.60;;;12.30;99.90;;;;;;5136785;27;20038;-76
2022/02/16 09:59:37;;;;;;;12.02;3.30;;;12.40;99.90;;;;;;5137410;27;20467;-76
2022/02/16 10:02:05;;;;;;;17.77;3.05;;;12.40;99.90;;;;;;5136420;27;20107;-76
2022/02/16 10:04:33;;;;;;;13.50;2.25;;;12.60;99.90;;;;;;5136904;27;20113;-77
2022/02/16 10:07:01;;;;;;;19.88;4.03;;;12.60;99.90;;;;;;5137043;27;20062;-76
2022/02/16 10:09:31;;;;;;;22.15;3.50;;;12.70;99.90;;;;;;5137339;27;20039;-77
2022/02/16 10:11:59;;;;;;;22.40;4.90;;;12.70;99.90;;;;;;5136926;27;20023;-76
2022/02/16 10:14:27;;;;;;;9.73;2.70;;;12.70;99.90;;;;;;5137019;27;20076;-76
2022/02/16 10:16:52;;;;;;;22.83;2.92;;;12.60;99.90;;;;;;5136104;27;20031;-76
2022/02/16 10:19:19;;;;;;;14.52;2.97;;;12.60;99.90;;;;;;5136242;27;20032;-75
2022/02/16 10:22:02;;;;;;;23.50;5.07;;;12.70;99.90;;;;;;5136668;27;20102;-74
2022/02/16 10:24:32;;;;;;;24.25;3.45;;;12.60;99.90;;;;;;5135545;27;20475;-76
2022/02/16 10:26:57;;;;;;;16.35;3.17;;;12.60;99.90;;;;;;5136367;27;20103;-75
2022/02/16 10:29:28;;;;;;;13.60;2.65;;;12.50;99.90;;;;;;5136310;27;20051;-75
2022/02/16 10:31:55;;;;;;;17.13;3.88;;;12.50;99.90;;;;;;5135162;27;20023;-74
2022/02/16 10:34:21;;;;;;;20.25;3.30;;;12.40;99.90;;;;;;5135435;27;20022;-76
2022/02/16 10:36:47;;;;;;;23.77;4.28;;;12.30;99.90;;;;;;5135683;27;20478;-76
2022/02/16 10:39:16;;;;;;;21.75;4.60;;;12.30;99.90;;;;;;5135175;27;20031;-75
2022/02/16 10:41:58;;;;;;;17.52;3.53;;;12.20;99.90;;;;;;5135635;27;20027;-75
2022/02/16 10:44:26;;;;;;;30.50;5.80;;;12.20;99.90;;;;;;5135361;27;20031;-76
2022/02/16 10:47:00;;;;;;;24.55;4.38;;;12.10;99.90;;;;;;5135482;27;20467;-76
2022/02/16 10:49:26;;;;;;;21.55;4.55;;;12.10;99.90;;;;;;5135875;27;20053;-74
2022/02/16 10:52:10;;;;;;;24.70;4.05;;;12.10;99.90;;;;;;5134552;27;20067;-75
2022/02/16 10:54:36;;;;;;;23.42;3.78;;;12.10;99.90;;;;;;5135344;27;20378;-75
2022/02/16 10:57:02;;;;;;;21.80;4.13;;;12.10;99.90;;;;;;5134168;27;20039;-75
2022/02/16 10:59:28;;;;;;;26.58;3.88;;;12.10;99.90;;;;;;5134529;27;20080;-75
2022/02/16 11:01:55;;;;;;;20.95;3.80;;;12.10;99.90;;;;;;5134819;27;20424;-75
2022/02/16 11:04:26;;;;;;;36.28;4.95;;;12.10;99.90;;;;;;5135006;27;20054;-75
2022/02/16 11:06:52;;;;;;;16.77;3.47;;;12.10;99.90;;;;;;5134111;27;20490;-74
2022/02/16 11:09:20;;;;;;;24.70;4.82;;;12.10;99.90;;;;;;5135204;27;20111;-75
2022/02/16 11:11:48;;;;;;;28.27;4.85;;;12.10;99.90;;;;;;5135455;27;20043;-75
2022/02/16 11:14:16;;;;;;;24.80;3.53;;;12.10;99.90;;;;;;5134375;27;20031;-75
2022/02/16 11:16:45;;;;;;;16.27;3.30;;;12.10;99.90;;;;;;5135120;27;20034;-75
2022/02/16 11:19:32;;;;;;;24.95;4.43;;;12.10;99.90;;;;;;5134834;27;20436;-75
2022/02/16 11:22:06;;;;;;;18.38;3.33;;;12.00;99.90;;;;;;5135015;27;20379;-75
2022/02/16 11:24:41;;;;;;;21.30;3.28;;;12.00;99.90;;;;;;5135780;27;20023;-76
2022/02/16 11:27:26;;;;;;;30.60;4.88;;;12.10;99.90;;;;;;5135637;27;20023;-75
2022/02/16 11:29:54;;;;;;;23.75;4.60;;;12.00;99.90;;;;;;5134544;27;20027;-75
2022/02/16 11:32:24;;;;;;;30.00;5.35;;;12.10;99.90;;;;;;5134387;27;20031;-75
2022/02/16 11:35:13;;;;;;;24.63;4.67;;;12.00;99.90;;;;;;5133867;28;20135;-75
2022/02/16 11:37:39;;;;;;;22.38;3.30;;;12.00;99.90;;;;;;5134496;27;20023;-75
2022/02/16 11:40:08;;;;;;;23.27;5.28;;;12.00;99.90;;;;;;5134783;28;20522;-75
2022/02/16 11:42:50;;;;;;;28.92;3.88;;;12.00;99.90;;;;;;5133617;28;20023;-74
2022/02/16 11:45:20;;;;;;;19.75;3.83;;;12.00;99.90;;;;;;5134158;28;20027;-76
2022/02/16 11:47:45;;;;;;;23.73;4.88;;;12.00;99.90;;;;;;5134231;27;20431;-75
2022/02/16 11:50:14;;;;;;;26.73;4.93;;;12.00;99.90;;;;;;5134995;28;20086;-75
2022/02/16 11:52:59;;;;;;;16.38;2.97;;;12.00;99.90;;;;;;5134817;27;20030;-76
2022/02/16 11:55:28;;;;;;;23.27;3.83;;;12.00;99.90;;;;;;5133929;28;20115;-76
2022/02/16 11:58:22;;;;;;;17.40;4.45;;;12.00;99.90;;;;;;5134772;28;20091;-76
2022/02/16 12:00:55;;;;;;;36.95;6.43;;;12.00;99.90;;;;;;5134631;27;20106;-76
2022/02/16 12:03:23;;;;;;;24.25;3.63;;;12.00;99.90;;;;;;5133835;28;20035;-76
2022/02/16 12:06:13;;;;;;;25.23;5.20;;;12.00;99.90;;;;;;5134672;27;20024;-74
2022/02/16 12:08:48;;;;;;;32.65;5.22;;;12.00;99.90;;;;;;5133751;28;20024;-76
2022/02/16 12:11:22;;;;;;;27.38;3.60;;;12.00;99.90;;;;;;5134385;27;20024;-77
2022/02/16 12:13:55;;;;;;;26.83;5.20;;;12.10;99.90;;;;;;5134622;27;20034;-75
2022/02/16 12:16:33;;;;;;;19.33;3.92;;;12.10;99.90;;;;;;5133825;27;20031;-75
2022/02/16 12:19:02;;;;;;;24.40;4.32;;;12.10;99.90;;;;;;5134160;28;20028;-75
2022/02/16 12:21:33;;;;;;;26.67;3.85;;;12.10;99.90;;;;;;5134181;27;20030;-78
2022/02/16 12:24:03;;;;;;;19.90;4.28;;;12.10;99.90;;;;;;5133329;27;20027;-75
2022/02/16 12:26:39;;;;;;;19.73;4.32;;;12.10;99.90;;;;;;5133633;27;20020;-75
2022/02/16 12:29:27;;;;;;;25.85;4.43;;;12.10;99.90;;;;;;5134129;27;20035;-76
2022/02/16 12:31:57;;;;;;;29.30;4.60;;;12.20;99.90;;;;;;5133409;27;20162;-75
2022/02/16 12:34:31;;;;;;;23.15;4.35;;;12.20;99.90;;;;;;5133828;28;20470;-76
2022/02/16 12:37:08;;;;;;;22.20;4.68;;;12.20;99.90;;;;;;5132981;27;20051;-77
2022/02/16 12:39:35;;;;;;;33.42;5.13;;;12.20;99.90;;;;;;5133872;28;20031;-76
2022/02/16 12:42:05;;;;;;;37.35;6.20;;;12.20;99.90;;;;;;5133765;27;20023;-75
2022/02/16 12:44:32;;;;;;;27.88;5.50;;;12.20;99.90;;;;;;5133270;28;20031;-76
2022/02/16 12:46:59;;;;;;;33.15;4.20;;;12.30;99.90;;;;;;5133883;27;20030;-75
2022/02/16 12:49:27;;;;;;;31.15;4.88;;;12.20;99.90;;;;;;5137289;27;20031;-75